sensor_id;sensor_type;location;lat;lon;timestamp;pressure;altitude;pressure_sealevel;temperature;humidity
63700;BME280;49845;47.130;142.766;2022-09-29T00:00:22;100270.75;;;14.34;72.18
63700;BME280;49845;47.130;142.766;2022-09-29T00:03:23;100244.56;;;14.31;71.18
63700;BME280;49845;47.130;142.766;2022-09-29T00:06:22;100260.72;;;14.18;72.89
63700;BME280;49845;47.130;142.766;2022-09-29T00:09:14;100261.28;;;14.28;72.59
63700;BME280;49845;47.130;142.766;2022-09-29T00:11:59;100263.81;;;14.03;72.26
63700;BME280;49845;47.130;142.766;2022-09-29T00:14:38;100269.25;;;13.67;73.93
63700;BME280;49845;47.130;142.766;2022-09-29T00:17:32;100266.59;;;13.37;75.37
63700;BME280;49845;47.130;142.766;2022-09-29T00:20:34;100258.38;;;13.17;76.74
63700;BME280;49845;47.130;142.766;2022-09-29T00:23:14;100263.63;;;13.17;77.83
63700;BME280;49845;47.130;142.766;2022-09-29T00:26:06;100231.03;;;13.26;78.35
63700;BME280;49845;47.130;142.766;2022-09-29T00:29:02;100262.28;;;13.35;77.13
63700;BME280;49845;47.130;142.766;2022-09-29T00:31:50;100262.28;;;13.35;76.37
63700;BME280;49845;47.130;142.766;2022-09-29T00:34:50;100260.03;;;13.21;77.25
63700;BME280;49845;47.130;142.766;2022-09-29T00:37:40;100261.22;;;13.08;78.80
63700;BME280;49845;47.130;142.766;2022-09-29T00:40:24;100277.78;;;13.10;78.50
63700;BME280;49845;47.130;142.766;2022-09-29T00:43:09;100275.47;;;13.33;79.06
63700;BME280;49845;47.130;142.766;2022-09-29T00:46:06;100278.94;;;13.34;78.36
63700;BME280;49845;47.130;142.766;2022-09-29T00:48:45;100257.38;;;13.54;77.61
63700;BME280;49845;47.130;142.766;2022-09-29T00:51:38;100280.22;;;13.50;77.95
63700;BME280;49845;47.130;142.766;2022-09-29T00:54:18;100273.47;;;13.42;78.62
63700;BME280;49845;47.130;142.766;2022-09-29T00:56:55;100282.69;;;13.56;77.21
63700;BME280;49845;47.130;142.766;2022-09-29T01:00:00;100293.59;;;13.72;78.14
63700;BME280;49845;47.130;142.766;2022-09-29T01:02:58;100223.97;;;13.59;77.81
63700;BME280;49845;47.130;142.766;2022-09-29T01:05:35;100292.88;;;13.97;75.17
63700;BME280;49845;47.130;142.766;2022-09-29T01:08:32;100277.38;;;13.88;74.99
63700;BME280;49845;47.130;142.766;2022-09-29T01:14:08;100288.00;;;13.85;76.10
63700;BME280;49845;47.130;142.766;2022-09-29T01:16:55;100291.06;;;13.99;76.25
63700;BME280;49845;47.130;142.766;2022-09-29T01:19:41;100297.38;;;13.93;74.43
63700;BME280;49845;47.130;142.766;2022-09-29T01:22:40;100283.72;;;14.10;76.17
63700;BME280;49845;47.130;142.766;2022-09-29T01:26:09;100299.81;;;14.28;73.67
63700;BME280;49845;47.130;142.766;2022-09-29T01:32:10;100302.56;;;14.24;72.44
63700;BME280;49845;47.130;142.766;2022-09-29T01:35:04;100312.91;;;14.31;72.49
63700;BME280;49845;47.130;142.766;2022-09-29T01:38:05;100324.16;;;14.06;73.47
63700;BME280;49845;47.130;142.766;2022-09-29T01:40:49;100322.97;;;13.87;74.53
63700;BME280;49845;47.130;142.766;2022-09-29T01:43:39;100303.00;;;13.81;74.71
63700;BME280;49845;47.130;142.766;2022-09-29T01:46:23;100323.41;;;13.71;74.84
63700;BME280;49845;47.130;142.766;2022-09-29T01:49:26;100314.53;;;13.75;74.48
63700;BME280;49845;47.130;142.766;2022-09-29T01:52:08;100324.16;;;13.75;74.17
63700;BME280;49845;47.130;142.766;2022-09-29T01:54:54;100331.16;;;13.76;73.91
63700;BME280;49845;47.130;142.766;2022-09-29T01:57:38;100326.84;;;13.73;73.80
63700;BME280;49845;47.130;142.766;2022-09-29T02:00:25;100327.59;;;13.77;74.18
63700;BME280;49845;47.130;142.766;2022-09-29T02:03:23;100318.06;;;14.04;72.24
63700;BME280;49845;47.130;142.766;2022-09-29T02:06:24;100263.47;;;14.14;70.82
63700;BME280;49845;47.130;142.766;2022-09-29T02:09:35;100312.91;;;14.59;68.69
63700;BME280;49845;47.130;142.766;2022-09-29T02:12:27;100319.59;;;14.69;67.72
63700;BME280;49845;47.130;142.766;2022-09-29T02:15:27;100319.19;;;14.81;68.67
63700;BME280;49845;47.130;142.766;2022-09-29T02:18:11;100302.06;;;14.95;67.73
63700;BME280;49845;47.130;142.766;2022-09-29T02:21:06;100321.16;;;15.01;67.56
63700;BME280;49845;47.130;142.766;2022-09-29T02:23:52;100314.09;;;15.03;68.00
63700;BME280;49845;47.130;142.766;2022-09-29T02:26:56;100322.16;;;15.24;65.70
63700;BME280;49845;47.130;142.766;2022-09-29T02:30:06;100316.56;;;15.33;64.68
63700;BME280;49845;47.130;142.766;2022-09-29T02:32:45;100310.75;;;15.23;63.45
63700;BME280;49845;47.130;142.766;2022-09-29T02:35:21;100318.81;;;15.19;63.01
63700;BME280;49845;47.130;142.766;2022-09-29T02:38:15;100316.56;;;15.33;65.58
63700;BME280;49845;47.130;142.766;2022-09-29T02:41:06;100316.03;;;15.48;63.46
63700;BME280;49845;47.130;142.766;2022-09-29T02:44:10;100309.91;;;15.73;64.47
63700;BME280;49845;47.130;142.766;2022-09-29T02:50:11;100314.34;;;15.71;61.84
63700;BME280;49845;47.130;142.766;2022-09-29T02:53:01;100305.25;;;15.54;61.62
63700;BME280;49845;47.130;142.766;2022-09-29T02:55:56;100294.63;;;15.58;61.64
63700;BME280;49845;47.130;142.766;2022-09-29T02:58:41;100286.25;;;15.46;59.64
63700;BME280;49845;47.130;142.766;2022-09-29T03:01:21;100307.81;;;15.32;59.14
63700;BME280;49845;47.130;142.766;2022-09-29T03:03:57;100284.84;;;15.36;60.66
63700;BME280;49845;47.130;142.766;2022-09-29T03:06:44;100273.88;;;15.48;60.52
63700;BME280;49845;47.130;142.766;2022-09-29T03:09:22;100281.91;;;15.69;58.69
63700;BME280;49845;47.130;142.766;2022-09-29T03:12:03;100274.97;;;15.66;59.33
63700;BME280;49845;47.130;142.766;2022-09-29T03:14:46;100275.16;;;15.62;58.96
63700;BME280;49845;47.130;142.766;2022-09-29T03:17:33;100273.56;;;15.58;59.08
63700;BME280;49845;47.130;142.766;2022-09-29T03:20:11;100251.72;;;15.54;58.68
63700;BME280;49845;47.130;142.766;2022-09-29T03:22:49;100257.53;;;15.87;58.90
63700;BME280;49845;47.130;142.766;2022-09-29T03:25:32;100255.78;;;16.10;58.10
63700;BME280;49845;47.130;142.766;2022-09-29T03:28:28;100257.16;;;16.20;56.03
63700;BME280;49845;47.130;142.766;2022-09-29T03:31:08;100271.25;;;16.19;55.37
63700;BME280;49845;47.130;142.766;2022-09-29T03:33:53;100273.53;;;16.05;54.49
63700;BME280;49845;47.130;142.766;2022-09-29T03:36:41;100271.13;;;16.00;55.21
63700;BME280;49845;47.130;142.766;2022-09-29T03:39:19;100263.13;;;16.02;56.11
63700;BME280;49845;47.130;142.766;2022-09-29T03:42:14;100261.50;;;16.21;54.90
63700;BME280;49845;47.130;142.766;2022-09-29T03:45:10;100260.56;;;16.22;53.32
63700;BME280;49845;47.130;142.766;2022-09-29T03:47:46;100252.59;;;16.24;55.29
63700;BME280;49845;47.130;142.766;2022-09-29T03:50:32;100252.97;;;16.36;54.53
63700;BME280;49845;47.130;142.766;2022-09-29T03:53:19;100227.59;;;16.34;53.95
63700;BME280;49845;47.130;142.766;2022-09-29T03:55:59;100250.13;;;16.63;54.20
63700;BME280;49845;47.130;142.766;2022-09-29T03:58:36;100241.16;;;16.67;53.82
63700;BME280;49845;47.130;142.766;2022-09-29T04:01:22;100237.31;;;16.74;54.40
63700;BME280;49845;47.130;142.766;2022-09-29T04:04:17;100230.50;;;16.70;54.23
63700;BME280;49845;47.130;142.766;2022-09-29T04:07:03;100234.16;;;16.66;53.41
63700;BME280;49845;47.130;142.766;2022-09-29T04:09:50;100225.59;;;16.61;53.58
63700;BME280;49845;47.130;142.766;2022-09-29T04:12:44;100222.09;;;16.83;55.48
63700;BME280;49845;47.130;142.766;2022-09-29T04:15:25;100201.63;;;16.88;54.12
63700;BME280;49845;47.130;142.766;2022-09-29T04:18:26;100220.22;;;17.05;52.91
63700;BME280;49845;47.130;142.766;2022-09-29T04:21:12;100216.00;;;17.01;52.11
63700;BME280;49845;47.130;142.766;2022-09-29T04:24:04;100216.38;;;16.92;52.16
63700;BME280;49845;47.130;142.766;2022-09-29T04:26:47;100210.38;;;17.09;55.25
63700;BME280;49845;47.130;142.766;2022-09-29T04:29:23;100219.69;;;17.17;52.85
63700;BME280;49845;47.130;142.766;2022-09-29T04:32:03;100208.03;;;17.21;52.24
63700;BME280;49845;47.130;142.766;2022-09-29T04:34:54;100222.34;;;17.17;52.06
63700;BME280;49845;47.130;142.766;2022-09-29T04:37:46;100205.41;;;17.21;52.47
63700;BME280;49845;47.130;142.766;2022-09-29T04:40:27;100138.34;;;16.86;51.22
63700;BME280;49845;47.130;142.766;2022-09-29T04:43:13;100198.44;;;17.20;49.42
63700;BME280;49845;47.130;142.766;2022-09-29T04:45:51;100183.13;;;17.08;52.03
63700;BME280;49845;47.130;142.766;2022-09-29T04:48:30;100192.09;;;17.04;49.21
63700;BME280;49845;47.130;142.766;2022-09-29T04:51:10;100186.50;;;16.91;49.80
63700;BME280;49845;47.130;142.766;2022-09-29T04:53:49;100197.91;;;16.92;50.49
63700;BME280;49845;47.130;142.766;2022-09-29T04:56:33;100200.84;;;16.86;49.74
63700;BME280;49845;47.130;142.766;2022-09-29T04:59:24;100193.09;;;16.81;49.94
63700;BME280;49845;47.130;142.766;2022-09-29T05:01:58;100197.59;;;16.79;49.30
63700;BME280;49845;47.130;142.766;2022-09-29T05:04:44;100184.97;;;16.65;49.02
63700;BME280;49845;47.130;142.766;2022-09-29T05:07:32;100177.97;;;16.64;51.08
63700;BME280;49845;47.130;142.766;2022-09-29T05:10:33;100206.47;;;16.56;49.96
63700;BME280;49845;47.130;142.766;2022-09-29T05:13:27;100215.41;;;16.52;50.09
63700;BME280;49845;47.130;142.766;2022-09-29T05:16:15;100205.66;;;16.54;50.30
63700;BME280;49845;47.130;142.766;2022-09-29T05:18:58;100138.91;;;16.31;51.79
63700;BME280;49845;47.130;142.766;2022-09-29T05:21:39;100198.16;;;16.65;55.45
63700;BME280;49845;47.130;142.766;2022-09-29T05:24:34;100193.06;;;16.83;56.38
63700;BME280;49845;47.130;142.766;2022-09-29T05:27:19;100201.34;;;16.94;54.64
63700;BME280;49845;47.130;142.766;2022-09-29T05:30:11;100199.50;;;16.96;53.34
63700;BME280;49845;47.130;142.766;2022-09-29T05:32:49;100201.94;;;17.00;52.31
63700;BME280;49845;47.130;142.766;2022-09-29T05:35:38;100196.47;;;16.85;51.43
63700;BME280;49845;47.130;142.766;2022-09-29T05:38:15;100197.22;;;16.66;52.13
63700;BME280;49845;47.130;142.766;2022-09-29T05:40:54;100208.16;;;16.57;52.37
63700;BME280;49845;47.130;142.766;2022-09-29T05:43:31;100210.13;;;16.52;54.00
63700;BME280;49845;47.130;142.766;2022-09-29T05:46:24;100208.56;;;16.48;53.05
63700;BME280;49845;47.130;142.766;2022-09-29T05:48:59;100210.53;;;16.43;53.28
63700;BME280;49845;47.130;142.766;2022-09-29T05:51:44;100209.97;;;16.34;53.60
63700;BME280;49845;47.130;142.766;2022-09-29T05:54:22;100204.44;;;16.20;54.00
63700;BME280;49845;47.130;142.766;2022-09-29T05:57:17;100215.06;;;16.17;55.55
63700;BME280;49845;47.130;142.766;2022-09-29T05:59:55;100198.66;;;16.10;55.93
63700;BME280;49845;47.130;142.766;2022-09-29T06:03:01;100173.88;;;15.92;56.41
63700;BME280;49845;47.130;142.766;2022-09-29T06:05:37;100231.56;;;16.22;56.29
63700;BME280;49845;47.130;142.766;2022-09-29T06:08:37;100175.84;;;15.87;57.15
63700;BME280;49845;47.130;142.766;2022-09-29T06:11:28;100164.31;;;15.68;57.91
63700;BME280;49845;47.130;142.766;2022-09-29T06:14:32;100235.06;;;16.01;58.17
63700;BME280;49845;47.130;142.766;2022-09-29T06:17:16;100236.34;;;15.90;58.65
63700;BME280;49845;47.130;142.766;2022-09-29T06:19:59;100238.31;;;15.85;59.25
63700;BME280;49845;47.130;142.766;2022-09-29T06:22:40;100237.38;;;15.86;60.18
63700;BME280;49845;47.130;142.766;2022-09-29T06:25:22;100242.78;;;15.83;60.41
63700;BME280;49845;47.130;142.766;2022-09-29T06:28:04;100236.56;;;15.84;60.62
63700;BME280;49845;47.130;142.766;2022-09-29T06:30:43;100229.81;;;15.77;59.71
63700;BME280;49845;47.130;142.766;2022-09-29T06:33:24;100236.75;;;15.80;60.53
63700;BME280;49845;47.130;142.766;2022-09-29T06:36:07;100239.66;;;15.72;60.59
63700;BME280;49845;47.130;142.766;2022-09-29T06:39:01;100243.41;;;15.65;60.60
63700;BME280;49845;47.130;142.766;2022-09-29T06:41:38;100246.69;;;15.73;61.53
63700;BME280;49845;47.130;142.766;2022-09-29T06:44:16;100258.69;;;15.80;60.89
63700;BME280;49845;47.130;142.766;2022-09-29T06:50:11;100265.69;;;15.81;60.71
63700;BME280;49845;47.130;142.766;2022-09-29T06:53:10;100272.16;;;15.72;61.48
63700;BME280;49845;47.130;142.766;2022-09-29T06:56:34;100268.97;;;15.63;62.54
63700;BME280;49845;47.130;142.766;2022-09-29T06:59:16;100273.44;;;15.61;63.26
63700;BME280;49845;47.130;142.766;2022-09-29T07:02:20;100278.91;;;15.54;63.04
63700;BME280;49845;47.130;142.766;2022-09-29T07:05:12;100286.13;;;15.49;64.02
63700;BME280;49845;47.130;142.766;2022-09-29T07:08:00;100288.31;;;15.38;64.96
63700;BME280;49845;47.130;142.766;2022-09-29T07:10:53;100283.25;;;15.32;67.14
63700;BME280;49845;47.130;142.766;2022-09-29T07:13:33;100295.81;;;15.24;68.88
63700;BME280;49845;47.130;142.766;2022-09-29T07:16:15;100301.31;;;15.18;69.89
63700;BME280;49845;47.130;142.766;2022-09-29T07:19:22;100305.06;;;15.10;70.56
63700;BME280;49845;47.130;142.766;2022-09-29T07:22:21;100310.41;;;15.07;70.67
63700;BME280;49845;47.130;142.766;2022-09-29T07:25:37;100325.78;;;15.20;71.51
63700;BME280;49845;47.130;142.766;2022-09-29T07:28:27;100326.56;;;15.23;71.37
63700;BME280;49845;47.130;142.766;2022-09-29T07:31:08;100332.38;;;15.33;71.41
63700;BME280;49845;47.130;142.766;2022-09-29T07:34:09;100339.66;;;15.25;69.77
63700;BME280;49845;47.130;142.766;2022-09-29T07:37:02;100337.13;;;15.22;70.93
63700;BME280;49845;47.130;142.766;2022-09-29T07:39:52;100343.63;;;15.12;70.60
63700;BME280;49845;47.130;142.766;2022-09-29T07:42:45;100339.69;;;14.98;70.75
63700;BME280;49845;47.130;142.766;2022-09-29T07:45:28;100344.44;;;14.87;71.05
63700;BME280;49845;47.130;142.766;2022-09-29T07:48:11;100345.66;;;14.77;71.26
63700;BME280;49845;47.130;142.766;2022-09-29T07:51:00;100319.38;;;14.47;71.23
63700;BME280;49845;47.130;142.766;2022-09-29T07:53:54;100346.53;;;14.48;71.78
63700;BME280;49845;47.130;142.766;2022-09-29T07:56:45;100347.88;;;14.33;72.41
63700;BME280;49845;47.130;142.766;2022-09-29T07:59:26;100351.50;;;14.29;72.60
63700;BME280;49845;47.130;142.766;2022-09-29T08:02:16;100355.34;;;14.17;72.99
63700;BME280;49845;47.130;142.766;2022-09-29T08:04:59;100367.78;;;14.10;73.26
63700;BME280;49845;47.130;142.766;2022-09-29T08:07:49;100369.91;;;13.99;73.29
63700;BME280;49845;47.130;142.766;2022-09-29T08:10:28;100372.72;;;13.93;73.77
63700;BME280;49845;47.130;142.766;2022-09-29T08:13:19;100377.13;;;13.91;74.17
63700;BME280;49845;47.130;142.766;2022-09-29T08:15:57;100377.38;;;13.81;74.41
63700;BME280;49845;47.130;142.766;2022-09-29T08:18:44;100375.06;;;13.71;74.87
63700;BME280;49845;47.130;142.766;2022-09-29T08:21:22;100377.97;;;13.60;74.95
63700;BME280;49845;47.130;142.766;2022-09-29T08:24:21;100374.59;;;13.55;75.30
63700;BME280;49845;47.130;142.766;2022-09-29T08:27:05;100369.53;;;13.49;75.66
63700;BME280;49845;47.130;142.766;2022-09-29T08:30:01;100366.31;;;13.37;75.82
63700;BME280;49845;47.130;142.766;2022-09-29T08:32:36;100357.94;;;13.23;76.38
63700;BME280;49845;47.130;142.766;2022-09-29T08:35:14;100365.06;;;13.18;76.54
63700;BME280;49845;47.130;142.766;2022-09-29T08:37:49;100362.75;;;13.06;77.21
63700;BME280;49845;47.130;142.766;2022-09-29T08:40:30;100368.31;;;12.92;77.35
63700;BME280;49845;47.130;142.766;2022-09-29T08:43:13;100380.03;;;12.77;77.42
63700;BME280;49845;47.130;142.766;2022-09-29T08:46:25;100371.63;;;12.63;77.86
63700;BME280;49845;47.130;142.766;2022-09-29T08:49:24;100386.75;;;12.51;78.29
63700;BME280;49845;47.130;142.766;2022-09-29T08:52:08;100381.50;;;12.50;78.51
63700;BME280;49845;47.130;142.766;2022-09-29T08:55:00;100377.56;;;12.32;78.68
63700;BME280;49845;47.130;142.766;2022-09-29T08:57:54;100384.28;;;12.44;78.58
63700;BME280;49845;47.130;142.766;2022-09-29T09:01:05;100398.25;;;12.44;78.95
63700;BME280;49845;47.130;142.766;2022-09-29T09:07:37;100395.06;;;12.30;79.40
63700;BME280;49845;47.130;142.766;2022-09-29T09:10:41;100364.25;;;12.01;79.69
63700;BME280;49845;47.130;142.766;2022-09-29T09:13:56;100397.06;;;12.19;80.00
63700;BME280;49845;47.130;142.766;2022-09-29T09:16:51;100397.16;;;12.13;80.25
63700;BME280;49845;47.130;142.766;2022-09-29T09:20:12;100397.41;;;12.00;80.89
63700;BME280;49845;47.130;142.766;2022-09-29T09:26:16;100404.56;;;11.92;81.70
63700;BME280;49845;47.130;142.766;2022-09-29T09:29:20;100418.63;;;11.85;82.46
63700;BME280;49845;47.130;142.766;2022-09-29T09:32:36;100431.78;;;11.82;82.95
63700;BME280;49845;47.130;142.766;2022-09-29T09:35:34;100427.63;;;11.72;83.35
63700;BME280;49845;47.130;142.766;2022-09-29T09:38:56;100425.09;;;11.65;83.84
63700;BME280;49845;47.130;142.766;2022-09-29T09:41:56;100431.25;;;11.64;84.09
63700;BME280;49845;47.130;142.766;2022-09-29T09:44:41;100436.59;;;11.58;84.29
63700;BME280;49845;47.130;142.766;2022-09-29T09:47:28;100440.16;;;11.54;84.51
63700;BME280;49845;47.130;142.766;2022-09-29T09:50:16;100428.88;;;11.51;84.49
63700;BME280;49845;47.130;142.766;2022-09-29T09:53:18;100446.38;;;11.47;84.58
63700;BME280;49845;47.130;142.766;2022-09-29T09:56:22;100341.19;;;10.75;84.69
63700;BME280;49845;47.130;142.766;2022-09-29T09:59:07;100445.72;;;11.33;84.59
63700;BME280;49845;47.130;142.766;2022-09-29T10:02:07;100446.72;;;11.26;84.83
63700;BME280;49845;47.130;142.766;2022-09-29T10:05:01;100446.91;;;11.15;84.99
63700;BME280;49845;47.130;142.766;2022-09-29T10:07:43;100446.13;;;11.08;85.19
63700;BME280;49845;47.130;142.766;2022-09-29T10:10:30;100400.56;;;10.67;85.54
63700;BME280;49845;47.130;142.766;2022-09-29T10:13:43;100464.66;;;10.94;85.82
63700;BME280;49845;47.130;142.766;2022-09-29T10:16:37;100465.59;;;10.89;86.18
63700;BME280;49845;47.130;142.766;2022-09-29T10:23:23;100470.16;;;10.76;86.52
63700;BME280;49845;47.130;142.766;2022-09-29T10:26:18;100465.03;;;10.67;86.65
63700;BME280;49845;47.130;142.766;2022-09-29T10:33:28;100429.78;;;10.30;86.94
63700;BME280;49845;47.130;142.766;2022-09-29T10:36:21;100467.88;;;10.50;87.02
63700;BME280;49845;47.130;142.766;2022-09-29T10:39:01;100473.13;;;10.47;87.31
63700;BME280;49845;47.130;142.766;2022-09-29T10:41:50;100468.88;;;10.38;87.76
63700;BME280;49845;47.130;142.766;2022-09-29T10:44:44;100469.75;;;10.39;88.24
63700;BME280;49845;47.130;142.766;2022-09-29T10:47:32;100470.59;;;10.41;88.12
63700;BME280;49845;47.130;142.766;2022-09-29T10:50:23;100463.66;;;10.38;87.96
63700;BME280;49845;47.130;142.766;2022-09-29T10:53:18;100449.09;;;10.17;88.31
63700;BME280;49845;47.130;142.766;2022-09-29T10:56:18;100474.22;;;10.29;88.38
63700;BME280;49845;47.130;142.766;2022-09-29T10:58:55;100479.53;;;10.20;88.31
63700;BME280;49845;47.130;142.766;2022-09-29T11:01:43;100477.03;;;10.09;87.90
63700;BME280;49845;47.130;142.766;2022-09-29T11:04:29;100475.28;;;10.11;88.27
63700;BME280;49845;47.130;142.766;2022-09-29T11:07:10;100486.53;;;10.13;88.82
63700;BME280;49845;47.130;142.766;2022-09-29T11:09:50;100496.03;;;10.20;89.12
63700;BME280;49845;47.130;142.766;2022-09-29T11:12:49;100489.06;;;10.22;89.60
63700;BME280;49845;47.130;142.766;2022-09-29T11:15:40;100475.16;;;10.20;89.68
63700;BME280;49845;47.130;142.766;2022-09-29T11:18:22;100495.03;;;10.35;89.71
63700;BME280;49845;47.130;142.766;2022-09-29T11:21:12;100504.50;;;10.47;89.98
63700;BME280;49845;47.130;142.766;2022-09-29T11:24:05;100502.59;;;10.58;90.18
63700;BME280;49845;47.130;142.766;2022-09-29T11:26:57;100436.84;;;10.22;89.70
63700;BME280;49845;47.130;142.766;2022-09-29T11:29:44;100506.00;;;10.66;89.77
63700;BME280;49845;47.130;142.766;2022-09-29T11:33:00;100502.38;;;10.76;89.77
63700;BME280;49845;47.130;142.766;2022-09-29T11:36:06;100495.41;;;10.75;89.30
63700;BME280;49845;47.130;142.766;2022-09-29T11:39:07;100523.88;;;10.95;89.61
63700;BME280;49845;47.130;142.766;2022-09-29T11:42:17;100529.00;;;11.06;89.08
63700;BME280;49845;47.130;142.766;2022-09-29T11:45:07;100522.78;;;11.13;88.75
63700;BME280;49845;47.130;142.766;2022-09-29T11:48:20;100536.72;;;11.12;88.54
63700;BME280;49845;47.130;142.766;2022-09-29T11:51:23;100537.63;;;11.11;88.44
63700;BME280;49845;47.130;142.766;2022-09-29T11:54:47;100531.56;;;11.09;88.80
63700;BME280;49845;47.130;142.766;2022-09-29T11:57:47;100535.03;;;11.08;88.74
63700;BME280;49845;47.130;142.766;2022-09-29T12:00:40;100532.47;;;11.07;88.52
63700;BME280;49845;47.130;142.766;2022-09-29T12:04:03;100531.44;;;11.15;88.19
63700;BME280;49845;47.130;142.766;2022-09-29T12:07:12;100533.16;;;11.19;87.94
63700;BME280;49845;47.130;142.766;2022-09-29T12:10:44;100505.41;;;11.09;87.23
63700;BME280;49845;47.130;142.766;2022-09-29T12:14:03;100520.13;;;11.15;87.14
63700;BME280;49845;47.130;142.766;2022-09-29T12:17:11;100531.44;;;11.15;87.16
63700;BME280;49845;47.130;142.766;2022-09-29T12:20:21;100526.38;;;11.06;87.39
63700;BME280;49845;47.130;142.766;2022-09-29T12:23:10;100527.19;;;11.08;87.31
63700;BME280;49845;47.130;142.766;2022-09-29T12:25:58;100510.75;;;11.00;87.21
63700;BME280;49845;47.130;142.766;2022-09-29T12:28:54;100483.13;;;10.84;86.92
63700;BME280;49845;47.130;142.766;2022-09-29T12:31:43;100462.38;;;10.68;86.59
63700;BME280;49845;47.130;142.766;2022-09-29T12:34:27;100516.03;;;10.97;87.14
63700;BME280;49845;47.130;142.766;2022-09-29T12:37:06;100536.84;;;11.03;87.41
63700;BME280;49845;47.130;142.766;2022-09-29T12:40:02;100540.38;;;11.02;87.80
63700;BME280;49845;47.130;142.766;2022-09-29T12:43:01;100534.22;;;11.05;87.85
63700;BME280;49845;47.130;142.766;2022-09-29T12:46:05;100523.03;;;10.95;88.14
63700;BME280;49845;47.130;142.766;2022-09-29T12:49:01;100522.19;;;10.93;88.21
63700;BME280;49845;47.130;142.766;2022-09-29T12:51:46;100528.31;;;10.92;88.61
63700;BME280;49845;47.130;142.766;2022-09-29T12:58:41;100510.00;;;10.92;90.15
63700;BME280;49845;47.130;142.766;2022-09-29T13:01:25;100505.66;;;10.91;90.80
63700;BME280;49845;47.130;142.766;2022-09-29T13:04:30;100514.25;;;10.99;91.69
63700;BME280;49845;47.130;142.766;2022-09-29T13:07:24;100512.44;;;11.04;92.66
63700;BME280;49845;47.130;142.766;2022-09-29T13:10:35;100520.19;;;11.12;93.20
63700;BME280;49845;47.130;142.766;2022-09-29T13:17:12;100510.53;;;11.15;93.86
63700;BME280;49845;47.130;142.766;2022-09-29T13:26:21;100526.00;;;11.31;94.29
63700;BME280;49845;47.130;142.766;2022-09-29T13:29:22;100506.94;;;11.22;94.51
63700;BME280;49845;47.130;142.766;2022-09-29T13:32:07;100526.88;;;11.31;94.75
63700;BME280;49845;47.130;142.766;2022-09-29T13:34:47;100518.97;;;11.33;94.67
63700;BME280;49845;47.130;142.766;2022-09-29T13:37:46;100532.91;;;11.35;94.76
63700;BME280;49845;47.130;142.766;2022-09-29T13:40:26;100469.03;;;10.94;94.64
63700;BME280;49845;47.130;142.766;2022-09-29T13:43:37;100522.38;;;11.38;94.87
63700;BME280;49845;47.130;142.766;2022-09-29T13:46:37;100529.38;;;11.39;94.94
63700;BME280;49845;47.130;142.766;2022-09-29T13:49:30;100517.16;;;11.38;95.00
63700;BME280;49845;47.130;142.766;2022-09-29T13:52:36;100511.94;;;11.38;94.91
63700;BME280;49845;47.130;142.766;2022-09-29T13:55:50;100513.63;;;11.42;94.40
63700;BME280;49845;47.130;142.766;2022-09-29T13:58:31;100517.19;;;11.36;94.61
63700;BME280;49845;47.130;142.766;2022-09-29T14:04:59;100514.66;;;11.30;94.83
63700;BME280;49845;47.130;142.766;2022-09-29T14:07:45;100509.47;;;11.27;94.73
63700;BME280;49845;47.130;142.766;2022-09-29T14:10:28;100508.56;;;11.30;94.68
63700;BME280;49845;47.130;142.766;2022-09-29T14:13:14;100506.84;;;11.29;94.55
63700;BME280;49845;47.130;142.766;2022-09-29T14:16:09;100469.63;;;11.10;94.29
63700;BME280;49845;47.130;142.766;2022-09-29T14:18:59;100492.22;;;11.15;94.23
63700;BME280;49845;47.130;142.766;2022-09-29T14:21:51;100496.75;;;11.04;93.99
63700;BME280;49845;47.130;142.766;2022-09-29T14:24:49;100488.19;;;10.93;94.14
63700;BME280;49845;47.130;142.766;2022-09-29T14:28:02;100489.97;;;10.91;94.34
63700;BME280;49845;47.130;142.766;2022-09-29T14:30:50;100472.72;;;10.77;94.46
63700;BME280;49845;47.130;142.766;2022-09-29T14:33:33;100497.09;;;10.78;94.98
63700;BME280;49845;47.130;142.766;2022-09-29T14:36:18;100485.19;;;10.57;94.93
63700;BME280;49845;47.130;142.766;2022-09-29T14:39:05;100494.66;;;10.66;95.13
63700;BME280;49845;47.130;142.766;2022-09-29T14:42:09;100455.91;;;10.33;95.43
63700;BME280;49845;47.130;142.766;2022-09-29T14:44:52;100509.53;;;10.62;95.52
63700;BME280;49845;47.130;142.766;2022-09-29T14:47:59;100510.41;;;10.61;95.74
63700;BME280;49845;47.130;142.766;2022-09-29T14:50:53;100513.84;;;10.65;95.83
63700;BME280;49845;47.130;142.766;2022-09-29T14:54:09;100516.44;;;10.66;95.98
63700;BME280;49845;47.130;142.766;2022-09-29T14:57:04;100506.00;;;10.66;95.85
63700;BME280;49845;47.130;142.766;2022-09-29T15:00:05;100504.28;;;10.62;95.84
63700;BME280;49845;47.130;142.766;2022-09-29T15:02:49;100497.41;;;10.55;96.03
63700;BME280;49845;47.130;142.766;2022-09-29T15:06:08;100500.91;;;10.54;96.01
63700;BME280;49845;47.130;142.766;2022-09-29T15:08:56;100465.50;;;10.30;96.21
63700;BME280;49845;47.130;142.766;2022-09-29T15:11:42;100494.03;;;10.47;96.61
63700;BME280;49845;47.130;142.766;2022-09-29T15:14:35;100506.19;;;10.51;96.52
63700;BME280;49845;47.130;142.766;2022-09-29T15:17:17;100505.31;;;10.50;96.59